Air Navigation Services of Czech Republic
Airport: LKCV Updated:  03.12.2021 18:59:28  UTC
 METAR LKCV 03.12. 19:00 ...
METAR LKCV 031900Z 15007KT CAVOK M01/M04 Q1012 NOSIG RMK BLU BLU=
 TAF LKCV 03.12. 17:00 ...
TAF LKCV 031700Z 0318/0418 21005KT CAVOK      BECMG 0320/0322 16008KT      BECMG 0405/0407 BKN035      BECMG 0407/0409 5000 SN BKN015      PROB40 TEMPO 0406/0412 16013KT 2000 SN BR BKN004 OVC010      TEMPO 0412/0418 4000 SNRA BKN010=